Time;durP1;ratioP1;P1;durP2;ratioP2;P2;SDS_P1;SDS_P2;PMS_P1;PMS_P2;Temp;Humidity;BMP_temperature;BMP_pressure;BME280_temperature;BME280_humidity;BME280_pressure;Samples;Min_cycle;Max_cycle;Signal;HPM_P1;HPM_P2
2021/11/13 00:00:42;;;;;;;22.83;14.43;;;;;;;;;;5045543;28;20017;-81
2021/11/13 00:03:10;;;;;;;23.40;14.70;;;;;;;;;;5041217;28;20159;-81
2021/11/13 00:05:36;;;;;;;21.05;14.45;;;;;;;;;;5023447;28;20417;-82
2021/11/13 00:08:03;;;;;;;26.77;15.65;;;;;;;;;;5033370;28;20094;-86
2021/11/13 00:10:29;;;;;;;23.45;14.27;;;;;;;;;;5052767;28;20025;-80
2021/11/13 00:12:57;;;;;;;23.50;14.05;;;;;;;;;;5050131;28;20142;-81
2021/11/13 00:15:24;;;;;;;23.95;14.88;;;;;;;;;;5045816;28;20035;-82
2021/11/13 00:17:51;;;;;;;23.73;14.27;;;;;;;;;;5060542;28;20606;-80
2021/11/13 00:20:17;;;;;;;23.30;15.30;;;;;;;;;;5065217;28;20146;-82
2021/11/13 00:22:44;;;;;;;25.40;15.15;;;;;;;;;;5049566;28;20035;-82
2021/11/13 00:25:10;;;;;;;21.40;13.90;;;;;;;;;;5066333;28;20595;-80
2021/11/13 00:27:35;;;;;;;21.13;14.60;;;;;;;;;;5062181;28;20070;-81
2021/11/13 00:30:01;;;;;;;25.17;14.40;;;;;;;;;;5049380;28;20038;-82
2021/11/13 00:32:26;;;;;;;21.33;13.98;;;;;;;;;;5063517;28;20039;-82
2021/11/13 00:34:51;;;;;;;22.98;14.45;;;;;;;;;;5054685;28;20070;-85
2021/11/13 00:37:17;;;;;;;23.20;14.50;;;;;;;;;;5059775;28;20104;-82
2021/11/13 00:39:43;;;;;;;21.77;14.75;;;;;;;;;;5062990;28;20136;-82
2021/11/13 00:42:09;;;;;;;23.15;14.23;;;;;;;;;;5063792;28;20032;-81
2021/11/13 00:44:35;;;;;;;25.60;13.95;;;;;;;;;;5061601;28;20402;-81
2021/11/13 00:47:01;;;;;;;22.38;13.75;;;;;;;;;;5067363;28;20099;-81
2021/11/13 00:49:28;;;;;;;21.42;13.05;;;;;;;;;;5061855;28;20020;-86
2021/11/13 00:51:53;;;;;;;22.85;13.55;;;;;;;;;;5067172;28;20028;-81
2021/11/13 00:54:19;;;;;;;20.45;13.32;;;;;;;;;;5063900;28;20039;-81
2021/11/13 00:56:46;;;;;;;23.60;13.98;;;;;;;;;;5045066;28;20035;-86
2021/11/13 00:59:12;;;;;;;21.25;13.15;;;;;;;;;;5045099;28;20498;-80
2021/11/13 01:01:37;;;;;;;18.83;13.43;;;;;;;;;;5039722;28;20116;-86
2021/11/13 01:04:03;;;;;;;21.85;13.32;;;;;;;;;;5057246;28;20046;-81
2021/11/13 01:06:28;;;;;;;20.45;12.13;;;;;;;;;;5063489;28;20052;-81
2021/11/13 01:08:53;;;;;;;20.25;13.20;;;;;;;;;;5048690;28;20640;-80
2021/11/13 01:11:19;;;;;;;19.83;13.60;;;;;;;;;;5046643;28;20036;-82
2021/11/13 01:13:44;;;;;;;18.13;12.43;;;;;;;;;;5061602;28;20034;-81
2021/11/13 01:16:10;;;;;;;20.85;13.40;;;;;;;;;;5063916;28;20032;-81
2021/11/13 01:18:38;;;;;;;18.35;12.20;;;;;;;;;;5060353;28;20040;-80
2021/11/13 01:21:04;;;;;;;20.38;13.55;;;;;;;;;;5053225;28;20476;-81
2021/11/13 01:23:29;;;;;;;20.25;13.55;;;;;;;;;;5047685;28;20086;-81
2021/11/13 01:25:54;;;;;;;20.85;14.10;;;;;;;;;;5042562;28;20036;-80
2021/11/13 01:28:20;;;;;;;18.15;12.63;;;;;;;;;;5045036;28;20028;-80
2021/11/13 01:30:45;;;;;;;21.50;14.02;;;;;;;;;;5046560;28;20048;-80
2021/11/13 01:33:10;;;;;;;20.42;13.57;;;;;;;;;;5046927;28;20093;-81
2021/11/13 01:35:35;;;;;;;18.17;13.13;;;;;;;;;;5042268;28;20112;-80
2021/11/13 01:38:01;;;;;;;24.77;15.05;;;;;;;;;;5055285;28;20056;-81
2021/11/13 01:40:27;;;;;;;18.83;13.32;;;;;;;;;;5045217;28;20127;-81
2021/11/13 01:42:57;;;;;;;20.20;13.00;;;;;;;;;;5044856;28;20584;-85
2021/11/13 01:45:23;;;;;;;20.08;12.52;;;;;;;;;;5046261;28;20040;-81
2021/11/13 01:47:49;;;;;;;18.45;12.68;;;;;;;;;;5047539;28;20025;-80
2021/11/13 01:50:17;;;;;;;20.05;13.40;;;;;;;;;;5044249;28;20036;-80
2021/11/13 01:52:43;;;;;;;18.52;12.68;;;;;;;;;;5061330;28;20029;-80
2021/11/13 01:55:09;;;;;;;20.63;12.60;;;;;;;;;;5060005;28;21184;-81
2021/11/13 01:57:44;;;;;;;22.23;13.73;;;;;;;;;;5049851;28;20025;-85
2021/11/13 02:00:31;;;;;;;20.02;13.10;;;;;;;;;;5042831;28;20063;-80
2021/11/13 02:02:57;;;;;;;18.45;12.48;;;;;;;;;;5042298;28;20048;-80
2021/11/13 02:05:23;;;;;;;18.05;12.35;;;;;;;;;;5055130;28;20032;-80
2021/11/13 02:07:49;;;;;;;22.00;13.40;;;;;;;;;;5060609;28;20532;-80
2021/11/13 02:10:16;;;;;;;21.83;13.20;;;;;;;;;;5057374;28;20399;-84
2021/11/13 02:12:42;;;;;;;19.83;12.32;;;;;;;;;;5061339;28;20449;-85
2021/11/13 02:15:08;;;;;;;20.63;13.23;;;;;;;;;;5061722;28;20032;-84
2021/11/13 02:17:34;;;;;;;19.65;12.00;;;;;;;;;;5062285;28;20032;-81
2021/11/13 02:20:21;;;;;;;18.13;13.10;;;;;;;;;;5061169;28;21034;-82
2021/11/13 02:22:47;;;;;;;19.40;13.00;;;;;;;;;;5064426;28;20037;-82
2021/11/13 02:25:18;;;;;;;18.42;12.68;;;;;;;;;;5060206;28;20060;-81
2021/11/13 02:27:43;;;;;;;20.77;13.00;;;;;;;;;;5042140;28;20077;-80
2021/11/13 02:30:10;;;;;;;18.50;12.68;;;;;;;;;;5045211;28;20028;-85
2021/11/13 02:32:36;;;;;;;18.67;12.80;;;;;;;;;;5046738;28;20031;-80
2021/11/13 02:35:01;;;;;;;18.48;13.30;;;;;;;;;;5062372;28;20024;-81
2021/11/13 02:37:28;;;;;;;20.27;13.30;;;;;;;;;;5067019;28;20028;-81
2021/11/13 02:39:54;;;;;;;20.50;13.98;;;;;;;;;;5060705;28;20041;-80
2021/11/13 02:42:22;;;;;;;21.63;13.10;;;;;;;;;;5062104;28;20424;-85
2021/11/13 02:44:50;;;;;;;18.10;12.20;;;;;;;;;;5062098;28;20036;-85
2021/11/13 02:47:16;;;;;;;21.27;14.60;;;;;;;;;;5050031;28;20032;-80
2021/11/13 02:49:42;;;;;;;19.90;13.20;;;;;;;;;;5040728;28;20510;-81
2021/11/13 02:52:07;;;;;;;19.83;12.95;;;;;;;;;;5063625;28;20081;-84
2021/11/13 02:54:32;;;;;;;20.02;13.23;;;;;;;;;;5044213;28;20028;-81
2021/11/13 02:56:58;;;;;;;21.50;14.05;;;;;;;;;;5048673;28;20055;-81
2021/11/13 02:59:23;;;;;;;19.85;14.05;;;;;;;;;;5065262;28;20610;-84
2021/11/13 03:01:48;;;;;;;21.80;14.43;;;;;;;;;;5062964;28;20497;-84
2021/11/13 03:04:15;;;;;;;19.48;13.82;;;;;;;;;;5062467;28;20685;-82
2021/11/13 03:06:40;;;;;;;22.55;13.30;;;;;;;;;;5059457;28;20115;-85
2021/11/13 03:09:07;;;;;;;22.90;14.20;;;;;;;;;;5048884;28;20515;-80
2021/11/13 03:11:32;;;;;;;20.92;14.40;;;;;;;;;;5066891;28;20040;-85
2021/11/13 03:13:58;;;;;;;24.98;14.43;;;;;;;;;;5068984;28;20898;-81
2021/11/13 03:16:23;;;;;;;22.83;13.48;;;;;;;;;;5066051;28;20032;-81
2021/11/13 03:18:49;;;;;;;19.92;12.88;;;;;;;;;;5048408;28;20039;-81
2021/11/13 03:21:15;;;;;;;23.88;13.73;;;;;;;;;;5068208;28;20111;-84
2021/11/13 03:23:43;;;;;;;23.45;14.73;;;;;;;;;;5051349;28;20111;-84
2021/11/13 03:26:15;;;;;;;20.77;13.73;;;;;;;;;;5067435;28;20146;-80
2021/11/13 03:28:45;;;;;;;20.60;14.05;;;;;;;;;;5068212;28;20667;-80
2021/11/13 03:31:11;;;;;;;21.42;14.05;;;;;;;;;;5049716;28;20488;-80
2021/11/13 03:33:39;;;;;;;18.60;13.43;;;;;;;;;;5047392;28;20036;-80
2021/11/13 03:36:06;;;;;;;17.40;13.05;;;;;;;;;;5065932;28;20486;-84
2021/11/13 03:38:33;;;;;;;19.98;13.68;;;;;;;;;;5060084;28;20031;-80
2021/11/13 03:40:59;;;;;;;18.75;12.32;;;;;;;;;;5064495;28;20113;-82
2021/11/13 03:43:25;;;;;;;20.52;12.55;;;;;;;;;;5062805;28;20012;-81
2021/11/13 03:45:51;;;;;;;21.38;13.13;;;;;;;;;;5064193;28;20028;-80
2021/11/13 03:48:17;;;;;;;18.23;12.65;;;;;;;;;;5060951;28;20029;-80
2021/11/13 03:50:43;;;;;;;19.45;13.05;;;;;;;;;;5067029;28;20029;-80
2021/11/13 03:53:09;;;;;;;18.90;12.88;;;;;;;;;;5061082;28;20381;-84
2021/11/13 03:55:35;;;;;;;20.33;12.70;;;;;;;;;;5062191;28;20032;-84
2021/11/13 03:58:01;;;;;;;16.27;11.35;;;;;;;;;;5065456;28;20032;-80
2021/11/13 04:00:27;;;;;;;18.73;12.30;;;;;;;;;;5059470;28;20047;-82
2021/11/13 04:02:53;;;;;;;18.52;12.95;;;;;;;;;;5063591;28;20391;-82
2021/11/13 04:05:20;;;;;;;18.15;12.43;;;;;;;;;;5047380;28;20028;-80
2021/11/13 04:07:45;;;;;;;17.35;11.95;;;;;;;;;;5045144;28;20029;-85
2021/11/13 04:10:12;;;;;;;18.25;12.30;;;;;;;;;;5061384;28;20047;-80
2021/11/13 04:12:39;;;;;;;19.42;12.30;;;;;;;;;;5064524;28;20024;-80
2021/11/13 04:15:05;;;;;;;18.23;12.63;;;;;;;;;;5061575;28;20036;-82
2021/11/13 04:17:31;;;;;;;19.98;13.00;;;;;;;;;;5066326;28;20110;-84
2021/11/13 04:19:57;;;;;;;17.55;12.60;;;;;;;;;;5060804;28;20759;-80
2021/11/13 04:22:22;;;;;;;17.00;12.07;;;;;;;;;;5046548;28;20028;-80
2021/11/13 04:24:48;;;;;;;18.38;12.50;;;;;;;;;;5063193;28;20082;-80
2021/11/13 04:27:17;;;;;;;16.08;11.70;;;;;;;;;;5064584;28;20115;-80
2021/11/13 04:29:44;;;;;;;18.55;12.75;;;;;;;;;;5048207;28;20041;-84
2021/11/13 04:32:09;;;;;;;20.65;11.68;;;;;;;;;;5064862;28;20037;-82
2021/11/13 04:37:15;;;;;;;16.13;11.27;;;;;;;;;;5063205;28;20656;-80
2021/11/13 04:39:41;;;;;;;15.57;10.70;;;;;;;;;;5038539;28;20063;-84
2021/11/13 04:42:06;;;;;;;19.33;11.82;;;;;;;;;;5063925;28;20110;-84
2021/11/13 04:44:32;;;;;;;14.93;10.10;;;;;;;;;;5059639;28;21510;-82
2021/11/13 04:46:57;;;;;;;15.25;11.27;;;;;;;;;;5041589;28;20032;-82
2021/11/13 04:49:23;;;;;;;14.38;10.77;;;;;;;;;;5046164;28;20036;-80
2021/11/13 04:51:48;;;;;;;14.95;11.07;;;;;;;;;;5060979;28;20026;-81
2021/11/13 04:54:13;;;;;;;15.32;10.63;;;;;;;;;;5054595;28;20104;-80
2021/11/13 04:56:39;;;;;;;16.05;11.57;;;;;;;;;;5060306;28;20502;-83
2021/11/13 04:59:05;;;;;;;15.63;11.70;;;;;;;;;;5058459;28;20033;-83
2021/11/13 05:01:30;;;;;;;13.63;11.20;;;;;;;;;;5060673;28;20036;-83
2021/11/13 05:03:55;;;;;;;16.02;11.63;;;;;;;;;;5043255;28;20036;-84
2021/11/13 05:06:22;;;;;;;15.63;11.05;;;;;;;;;;5061507;28;20059;-83
2021/11/13 05:08:48;;;;;;;16.27;11.27;;;;;;;;;;5062181;28;20056;-80
2021/11/13 05:11:14;;;;;;;15.20;10.68;;;;;;;;;;5046576;28;20227;-84
2021/11/13 05:13:39;;;;;;;15.18;10.75;;;;;;;;;;5058464;28;20115;-83
2021/11/13 05:16:05;;;;;;;15.50;11.40;;;;;;;;;;5058180;28;20131;-83
2021/11/13 05:18:30;;;;;;;13.82;10.60;;;;;;;;;;5045630;28;20032;-81
2021/11/13 05:20:56;;;;;;;15.48;11.35;;;;;;;;;;5042911;28;20587;-83
2021/11/13 05:23:22;;;;;;;14.73;11.23;;;;;;;;;;5061442;28;20433;-83
2021/11/13 05:25:47;;;;;;;18.25;11.48;;;;;;;;;;5046101;28;20040;-83
2021/11/13 05:28:13;;;;;;;17.42;11.98;;;;;;;;;;5063596;28;20391;-83
2021/11/13 05:30:38;;;;;;;15.85;11.70;;;;;;;;;;5041222;28;20024;-84
2021/11/13 05:33:03;;;;;;;16.17;11.68;;;;;;;;;;5043319;28;20029;-81
2021/11/13 05:35:29;;;;;;;16.30;11.30;;;;;;;;;;5057085;28;20028;-83
2021/11/13 05:37:54;;;;;;;15.38;10.57;;;;;;;;;;5061227;28;20036;-80
2021/11/13 05:40:20;;;;;;;15.95;11.38;;;;;;;;;;5057106;28;20174;-84
2021/11/13 05:42:47;;;;;;;17.00;12.48;;;;;;;;;;5062367;28;20036;-86
2021/11/13 05:45:14;;;;;;;17.65;12.23;;;;;;;;;;5045838;28;20039;-84
2021/11/13 05:47:40;;;;;;;17.58;12.27;;;;;;;;;;5065484;28;20025;-82
2021/11/13 05:50:10;;;;;;;16.65;12.20;;;;;;;;;;5060324;28;20158;-86
2021/11/13 05:52:36;;;;;;;18.15;12.30;;;;;;;;;;5060014;28;20118;-81
2021/11/13 05:55:02;;;;;;;17.73;12.50;;;;;;;;;;5058587;28;20070;-85
2021/11/13 05:57:28;;;;;;;15.55;11.82;;;;;;;;;;5045516;28;20042;-80
2021/11/13 05:59:54;;;;;;;15.38;12.00;;;;;;;;;;5060734;28;20036;-81
2021/11/13 06:02:19;;;;;;;16.98;11.88;;;;;;;;;;5060730;28;20016;-81
2021/11/13 06:04:44;;;;;;;16.92;11.77;;;;;;;;;;5058840;28;20036;-84
2021/11/13 06:07:10;;;;;;;15.18;11.27;;;;;;;;;;5062571;28;20028;-85
2021/11/13 06:09:35;;;;;;;15.23;11.20;;;;;;;;;;5041347;28;20051;-84
2021/11/13 06:12:00;;;;;;;15.95;10.77;;;;;;;;;;5045575;28;20130;-81
2021/11/13 06:14:26;;;;;;;15.15;11.30;;;;;;;;;;5044576;28;20040;-85
2021/11/13 06:16:51;;;;;;;14.60;10.55;;;;;;;;;;5044379;28;20619;-84
2021/11/13 06:19:16;;;;;;;14.98;11.15;;;;;;;;;;5063951;28;20036;-81
2021/11/13 06:21:42;;;;;;;15.75;11.43;;;;;;;;;;5061454;28;20025;-85
2021/11/13 06:24:09;;;;;;;14.82;10.85;;;;;;;;;;5061933;28;20476;-81
2021/11/13 06:26:35;;;;;;;15.88;11.50;;;;;;;;;;5044933;28;20025;-84
2021/11/13 06:29:00;;;;;;;15.65;11.15;;;;;;;;;;5059778;28;20039;-85
2021/11/13 06:31:26;;;;;;;14.32;10.55;;;;;;;;;;5058014;28;20033;-84
2021/11/13 06:33:51;;;;;;;15.50;11.70;;;;;;;;;;5045950;28;20340;-80
2021/11/13 06:36:16;;;;;;;15.40;10.77;;;;;;;;;;5060796;28;20386;-81
2021/11/13 06:38:42;;;;;;;14.80;10.63;;;;;;;;;;5042802;28;20028;-85
2021/11/13 06:41:07;;;;;;;16.77;11.70;;;;;;;;;;5060847;28;20024;-82
2021/11/13 06:43:32;;;;;;;14.82;11.25;;;;;;;;;;5062119;28;20043;-80
2021/11/13 06:45:58;;;;;;;15.60;11.40;;;;;;;;;;5060319;28;20024;-80
2021/11/13 06:48:25;;;;;;;14.48;10.65;;;;;;;;;;5063191;28;20028;-85
2021/11/13 06:50:52;;;;;;;15.77;11.43;;;;;;;;;;5044812;28;20039;-81
2021/11/13 06:53:18;;;;;;;15.98;11.38;;;;;;;;;;5056863;28;20103;-81
2021/11/13 06:55:44;;;;;;;15.98;11.55;;;;;;;;;;5059541;28;20399;-81
2021/11/13 06:58:09;;;;;;;15.05;11.45;;;;;;;;;;5061728;28;20020;-82
2021/11/13 07:00:34;;;;;;;15.23;11.10;;;;;;;;;;5043397;28;20448;-85
2021/11/13 07:03:02;;;;;;;15.18;10.98;;;;;;;;;;5060523;28;20044;-84
2021/11/13 07:05:28;;;;;;;16.60;11.80;;;;;;;;;;5062241;28;20106;-81
2021/11/13 07:07:54;;;;;;;15.10;11.18;;;;;;;;;;5058930;28;20025;-80
2021/11/13 07:10:21;;;;;;;16.83;11.30;;;;;;;;;;5046060;28;20035;-84
2021/11/13 07:12:47;;;;;;;13.77;10.85;;;;;;;;;;5058924;28;20024;-85
2021/11/13 07:15:14;;;;;;;14.90;11.10;;;;;;;;;;5061226;28;20109;-85
2021/11/13 07:17:39;;;;;;;14.93;10.63;;;;;;;;;;5063452;28;20042;-79
2021/11/13 07:20:05;;;;;;;15.57;10.60;;;;;;;;;;5057755;28;20029;-84
2021/11/13 07:22:31;;;;;;;15.15;10.75;;;;;;;;;;5047716;28;20118;-85
2021/11/13 07:24:57;;;;;;;14.98;10.70;;;;;;;;;;5044281;28;20470;-84
2021/11/13 07:27:23;;;;;;;15.85;11.38;;;;;;;;;;5046305;28;20846;-81
2021/11/13 07:29:58;;;;;;;16.85;10.63;;;;;;;;;;5041421;28;20107;-85
2021/11/13 07:32:24;;;;;;;14.88;10.90;;;;;;;;;;5049934;28;20115;-84
2021/11/13 07:34:49;;;;;;;16.63;11.25;;;;;;;;;;5064628;28;20594;-80
2021/11/13 07:37:14;;;;;;;16.17;11.38;;;;;;;;;;5049079;28;20028;-84
2021/11/13 07:39:40;;;;;;;19.25;12.88;;;;;;;;;;5059784;28;20039;-81
2021/11/13 07:42:05;;;;;;;19.73;12.55;;;;;;;;;;5047687;28;20040;-80
2021/11/13 07:44:31;;;;;;;18.35;12.82;;;;;;;;;;5042621;28;20036;-83
2021/11/13 07:46:57;;;;;;;20.02;13.43;;;;;;;;;;5061027;28;20020;-84
2021/11/13 07:49:22;;;;;;;18.58;12.30;;;;;;;;;;5061449;28;20116;-84
2021/11/13 07:51:48;;;;;;;20.35;13.00;;;;;;;;;;5040597;28;20168;-85
2021/11/13 07:54:14;;;;;;;19.52;12.90;;;;;;;;;;5059290;28;20094;-85
2021/11/13 07:56:39;;;;;;;19.13;13.40;;;;;;;;;;5050186;28;20439;-80
2021/11/13 07:59:05;;;;;;;18.65;13.45;;;;;;;;;;5064495;28;20024;-83
2021/11/13 08:01:30;;;;;;;21.70;13.90;;;;;;;;;;5061731;28;20028;-84
2021/11/13 08:03:55;;;;;;;20.65;13.70;;;;;;;;;;5065900;28;20476;-82
2021/11/13 08:06:22;;;;;;;21.90;13.68;;;;;;;;;;5048479;28;20134;-84
2021/11/13 08:08:48;;;;;;;23.88;14.13;;;;;;;;;;5048508;28;20068;-80
2021/11/13 08:11:13;;;;;;;19.00;13.10;;;;;;;;;;5062737;28;20024;-81
2021/11/13 08:13:40;;;;;;;21.08;13.48;;;;;;;;;;5057210;28;20044;-80
2021/11/13 08:16:06;;;;;;;20.30;13.63;;;;;;;;;;5064504;28;20028;-80
2021/11/13 08:18:31;;;;;;;18.75;12.75;;;;;;;;;;5066167;28;20086;-81
2021/11/13 08:20:59;;;;;;;23.38;13.40;;;;;;;;;;5043518;28;20022;-84
2021/11/13 08:23:25;;;;;;;21.88;12.75;;;;;;;;;;5060336;28;20074;-80
2021/11/13 08:25:52;;;;;;;20.90;13.10;;;;;;;;;;5044498;28;20514;-81
2021/11/13 08:28:19;;;;;;;21.85;13.15;;;;;;;;;;5059263;28;20059;-82
2021/11/13 08:30:44;;;;;;;20.30;12.40;;;;;;;;;;5063810;28;20025;-80
2021/11/13 08:33:10;;;;;;;18.27;12.43;;;;;;;;;;5062617;28;20021;-85
2021/11/13 08:35:38;;;;;;;22.60;12.55;;;;;;;;;;5058357;28;20150;-85
2021/11/13 08:38:04;;;;;;;19.33;12.65;;;;;;;;;;5047682;28;20031;-79
2021/11/13 08:40:30;;;;;;;19.10;11.95;;;;;;;;;;5060442;28;20039;-80
2021/11/13 08:42:56;;;;;;;20.48;12.82;;;;;;;;;;5061150;28;20032;-80
2021/11/13 08:45:21;;;;;;;19.17;12.38;;;;;;;;;;5044883;28;20036;-81
2021/11/13 08:47:47;;;;;;;19.33;12.50;;;;;;;;;;5062625;28;20147;-84
2021/11/13 08:50:19;;;;;;;22.20;12.25;;;;;;;;;;5049441;28;20032;-85
2021/11/13 08:52:47;;;;;;;18.40;11.60;;;;;;;;;;5059227;28;20039;-84
2021/11/13 08:55:13;;;;;;;19.83;11.95;;;;;;;;;;5045358;28;20123;-82
2021/11/13 08:57:41;;;;;;;20.70;12.18;;;;;;;;;;5061081;28;20511;-80
2021/11/13 09:00:08;;;;;;;20.92;12.65;;;;;;;;;;5045384;28;20637;-81
2021/11/13 09:02:53;;;;;;;22.50;12.65;;;;;;;;;;5064182;28;20036;-81
2021/11/13 09:05:26;;;;;;;22.75;12.82;;;;;;;;;;5059107;28;20477;-81
2021/11/13 09:07:55;;;;;;;21.87;12.70;;;;;;;;;;5044555;28;20037;-84
2021/11/13 09:10:22;;;;;;;21.38;12.30;;;;;;;;;;5045540;28;20285;-84
2021/11/13 09:13:01;;;;;;;24.85;13.13;;;;;;;;;;5035034;28;20047;-79
2021/11/13 09:15:31;;;;;;;20.65;12.32;;;;;;;;;;5045703;28;20044;-84
2021/11/13 09:17:57;;;;;;;19.67;12.20;;;;;;;;;;5030242;28;20044;-84
2021/11/13 09:20:24;;;;;;;22.75;12.25;;;;;;;;;;5041266;28;20369;-79
2021/11/13 09:22:56;;;;;;;18.58;11.70;;;;;;;;;;5035371;28;20063;-84
2021/11/13 09:25:23;;;;;;;22.48;12.43;;;;;;;;;;5024657;28;20035;-80
2021/11/13 09:28:00;;;;;;;20.42;12.20;;;;;;;;;;5046607;28;20028;-84
2021/11/13 09:30:32;;;;;;;20.35;12.10;;;;;;;;;;5046974;28;20055;-80
2021/11/13 09:32:58;;;;;;;19.70;11.75;;;;;;;;;;5029377;28;20119;-81
2021/11/13 09:35:24;;;;;;;21.20;12.15;;;;;;;;;;5044370;28;20029;-84
2021/11/13 09:37:50;;;;;;;21.02;11.50;;;;;;;;;;5027788;28;20029;-82
2021/11/13 09:40:18;;;;;;;18.92;10.32;;;;;;;;;;5019816;28;20060;-82
2021/11/13 09:42:51;;;;;;;22.80;11.18;;;;;;;;;;5045174;28;20490;-84
2021/11/13 09:45:17;;;;;;;17.70;10.52;;;;;;;;;;5029840;28;20056;-80
2021/11/13 09:47:44;;;;;;;18.60;11.32;;;;;;;;;;5027990;28;20072;-80
2021/11/13 09:50:16;;;;;;;20.08;10.50;;;;;;;;;;5029511;28;20024;-84
2021/11/13 09:52:43;;;;;;;16.98;10.68;;;;;;;;;;5027693;28;20039;-82
2021/11/13 09:55:10;;;;;;;17.33;10.70;;;;;;;;;;5026768;28;20468;-84
2021/11/13 09:57:37;;;;;;;17.50;10.73;;;;;;;;;;5046704;28;20033;-84
2021/11/13 10:00:09;;;;;;;18.15;10.10;;;;;;;;;;5043193;28;20112;-82
2021/11/13 10:02:35;;;;;;;23.13;10.27;;;;;;;;;;5023380;28;20086;-81
2021/11/13 10:05:00;;;;;;;15.98;9.40;;;;;;;;;;5015800;28;20681;-85
2021/11/13 10:07:26;;;;;;;13.73;8.95;;;;;;;;;;5024632;28;20432;-84
2021/11/13 10:09:51;;;;;;;17.70;9.15;;;;;;;;;;5057771;28;20804;-84
2021/11/13 10:12:17;;;;;;;14.77;9.38;;;;;;;;;;5043544;28;20071;-83
2021/11/13 10:14:43;;;;;;;19.10;9.07;;;;;;;;;;5059441;28;20036;-84
2021/11/13 10:17:24;;;;;;;14.45;9.23;;;;;;;;;;5048534;28;20024;-84
2021/11/13 10:19:49;;;;;;;13.85;9.13;;;;;;;;;;5057114;28;20375;-81
2021/11/13 10:22:15;;;;;;;17.27;9.52;;;;;;;;;;5056694;28;20029;-81
2021/11/13 10:24:47;;;;;;;18.20;9.88;;;;;;;;;;5045343;28;20020;-85
2021/11/13 10:27:12;;;;;;;13.40;8.60;;;;;;;;;;5056079;28;20021;-85
2021/11/13 10:29:38;;;;;;;15.30;8.73;;;;;;;;;;5047634;28;20032;-84
2021/11/13 10:32:08;;;;;;;16.20;9.25;;;;;;;;;;5062020;28;20206;-81
2021/11/13 10:34:46;;;;;;;12.90;8.75;;;;;;;;;;5042428;28;20028;-81
2021/11/13 10:37:17;;;;;;;14.55;9.25;;;;;;;;;;5042594;28;20024;-81
2021/11/13 10:39:44;;;;;;;13.45;8.82;;;;;;;;;;5058256;28;20020;-83
2021/11/13 10:42:12;;;;;;;14.13;9.18;;;;;;;;;;5043469;28;20032;-84
2021/11/13 10:44:53;;;;;;;14.10;9.18;;;;;;;;;;5044166;28;20858;-82
2021/11/13 10:47:31;;;;;;;13.18;8.88;;;;;;;;;;5059868;28;20078;-79
2021/11/13 10:50:15;;;;;;;16.70;9.75;;;;;;;;;;5064233;28;20036;-82
2021/11/13 10:52:41;;;;;;;12.35;8.65;;;;;;;;;;5049989;28;20028;-85
2021/11/13 10:55:17;;;;;;;12.15;8.75;;;;;;;;;;5049984;28;20046;-81
2021/11/13 10:57:42;;;;;;;15.57;8.57;;;;;;;;;;5042802;28;20040;-81
2021/11/13 11:00:14;;;;;;;14.48;9.00;;;;;;;;;;5065891;28;20033;-81
2021/11/13 11:02:39;;;;;;;19.50;9.07;;;;;;;;;;5061728;28;20021;-83
2021/11/13 11:05:14;;;;;;;13.98;8.88;;;;;;;;;;5047691;28;20039;-85
2021/11/13 11:07:40;;;;;;;12.55;8.75;;;;;;;;;;5042929;28;20032;-82
2021/11/13 11:10:08;;;;;;;12.93;8.80;;;;;;;;;;5058435;28;20045;-83
2021/11/13 11:12:35;;;;;;;13.98;7.95;;;;;;;;;;5059385;28;20035;-85
2021/11/13 11:15:06;;;;;;;11.90;8.18;;;;;;;;;;5051889;28;20059;-85
2021/11/13 11:17:31;;;;;;;11.95;7.65;;;;;;;;;;5046347;28;20033;-83
2021/11/13 11:20:08;;;;;;;12.88;7.97;;;;;;;;;;5058714;28;20036;-82
2021/11/13 11:22:35;;;;;;;11.50;6.82;;;;;;;;;;5044713;28;20033;-80
2021/11/13 11:25:06;;;;;;;15.32;7.13;;;;;;;;;;5062219;28;20029;-85
2021/11/13 11:27:35;;;;;;;11.68;7.80;;;;;;;;;;5043116;28;20312;-80
2021/11/13 11:30:05;;;;;;;13.05;7.47;;;;;;;;;;5043146;28;20551;-85
2021/11/13 11:32:44;;;;;;;13.23;8.18;;;;;;;;;;5057507;28;20067;-84
2021/11/13 11:35:12;;;;;;;13.48;8.18;;;;;;;;;;5057157;28;20029;-83
2021/11/13 11:37:40;;;;;;;15.27;8.50;;;;;;;;;;5060289;28;20044;-85
2021/11/13 11:40:16;;;;;;;13.82;7.95;;;;;;;;;;5056943;28;20025;-83
2021/11/13 11:42:43;;;;;;;14.45;8.45;;;;;;;;;;5056474;28;20029;-83
2021/11/13 11:45:12;;;;;;;14.60;7.93;;;;;;;;;;5061806;28;20493;-82
2021/11/13 11:47:39;;;;;;;13.25;8.35;;;;;;;;;;5040297;28;20120;-82
2021/11/13 11:50:08;;;;;;;11.63;8.23;;;;;;;;;;5060141;28;20135;-81
2021/11/13 11:52:35;;;;;;;10.43;7.47;;;;;;;;;;5046635;28;20394;-79
2021/11/13 11:55:04;;;;;;;11.52;7.63;;;;;;;;;;5044553;28;20036;-85
2021/11/13 11:57:34;;;;;;;11.13;7.07;;;;;;;;;;5045117;28;20063;-84
2021/11/13 12:00:09;;;;;;;11.77;7.35;;;;;;;;;;5059129;28;20021;-83
2021/11/13 12:02:44;;;;;;;11.85;6.85;;;;;;;;;;5056262;28;20028;-85
2021/11/13 12:05:19;;;;;;;13.52;7.20;;;;;;;;;;5055842;28;20033;-83
2021/11/13 12:07:46;;;;;;;10.98;7.68;;;;;;;;;;5055109;28;20045;-84
2021/11/13 12:10:15;;;;;;;10.73;7.10;;;;;;;;;;5043377;28;20466;-82
2021/11/13 12:13:00;;;;;;;15.30;6.95;;;;;;;;;;5044699;28;20031;-84
2021/11/13 12:15:27;;;;;;;13.55;7.72;;;;;;;;;;5055737;28;20040;-83
2021/11/13 12:17:53;;;;;;;10.95;7.50;;;;;;;;;;5056924;28;20028;-84
2021/11/13 12:20:31;;;;;;;13.60;8.15;;;;;;;;;;5057631;28;20029;-84
2021/11/13 12:23:00;;;;;;;12.13;7.70;;;;;;;;;;5061353;28;20043;-84
2021/11/13 12:25:30;;;;;;;12.75;8.10;;;;;;;;;;5057885;28;20504;-83
2021/11/13 12:28:19;;;;;;;11.57;7.72;;;;;;;;;;5046834;28;20036;-83
2021/11/13 12:31:01;;;;;;;11.75;7.43;;;;;;;;;;5042121;28;20067;-85
2021/11/13 12:33:26;;;;;;;12.88;8.05;;;;;;;;;;5052459;28;20683;-80
2021/11/13 12:36:02;;;;;;;11.60;7.80;;;;;;;;;;5041278;28;20064;-79
2021/11/13 12:38:59;;;;;;;12.18;7.35;;;;;;;;;;5056968;28;22127;-78
2021/11/13 12:42:33;;;;;;;13.50;7.35;;;;;;;;;;5057868;28;20186;-83
2021/11/13 12:45:01;;;;;;;8.05;5.40;;;;;;;;;;4976340;28;20910;-83
2021/11/13 12:47:36;;;;;;;8.43;5.50;;;;;;;;;;4982622;28;20041;-85
2021/11/13 12:50:31;;;;;;;10.82;6.10;;;;;;;;;;5028086;28;20497;-83
2021/11/13 12:53:02;;;;;;;10.57;5.95;;;;;;;;;;5034955;28;20048;-84
2021/11/13 12:55:36;;;;;;;7.88;5.55;;;;;;;;;;5044763;28;20104;-85
2021/11/13 12:58:10;;;;;;;8.30;5.20;;;;;;;;;;5055139;28;20023;-83
2021/11/13 13:00:45;;;;;;;8.65;5.28;;;;;;;;;;5054286;28;20549;-81
2021/11/13 13:03:21;;;;;;;7.43;5.13;;;;;;;;;;5040867;28;20082;-81
2021/11/13 13:08:21;;;;;;;9.75;5.38;;;;;;;;;;5083695;22;20048;-83
2021/11/13 13:10:47;;;;;;;8.10;5.38;;;;;;;;;;5043757;28;20041;-79
2021/11/13 13:13:15;;;;;;;11.93;5.40;;;;;;;;;;5045103;28;20017;-84
2021/11/13 13:15:50;;;;;;;9.85;4.97;;;;;;;;;;5045022;28;20020;-79
2021/11/13 13:18:16;;;;;;;6.63;5.20;;;;;;;;;;5017658;28;20454;-85
2021/11/13 13:20:45;;;;;;;7.85;5.28;;;;;;;;;;5040285;28;20085;-83
2021/11/13 13:23:12;;;;;;;8.48;5.30;;;;;;;;;;5059044;28;20131;-81
2021/11/13 13:25:40;;;;;;;8.88;5.10;;;;;;;;;;5043479;28;20040;-83
2021/11/13 13:28:07;;;;;;;7.20;5.50;;;;;;;;;;5061416;28;20036;-81
2021/11/13 13:30:34;;;;;;;9.43;5.45;;;;;;;;;;5058143;28;20028;-84
2021/11/13 13:33:00;;;;;;;9.07;5.82;;;;;;;;;;5043240;28;20063;-79
2021/11/13 13:35:28;;;;;;;10.18;5.82;;;;;;;;;;5043109;28;20052;-81
2021/11/13 13:37:59;;;;;;;9.10;5.68;;;;;;;;;;5042056;28;20101;-80
2021/11/13 13:40:43;;;;;;;11.82;6.15;;;;;;;;;;5059276;28;20035;-83
2021/11/13 13:43:18;;;;;;;14.25;5.70;;;;;;;;;;5059962;28;20032;-79
2021/11/13 13:45:48;;;;;;;12.15;5.68;;;;;;;;;;5060673;28;20034;-83
2021/11/13 13:48:18;;;;;;;7.80;5.50;;;;;;;;;;5056660;28;20081;-81
2021/11/13 13:50:46;;;;;;;10.75;5.22;;;;;;;;;;5045456;28;22398;-82
2021/11/13 13:53:11;;;;;;;9.05;5.30;;;;;;;;;;5056580;28;20056;-85
2021/11/13 13:55:40;;;;;;;11.15;5.32;;;;;;;;;;5042739;28;20447;-81
2021/11/13 13:58:08;;;;;;;8.25;5.25;;;;;;;;;;5041337;28;20038;-83
2021/11/13 14:00:46;;;;;;;6.97;4.40;;;;;;;;;;5043122;28;20024;-84
2021/11/13 14:03:11;;;;;;;10.05;4.22;;;;;;;;;;5041546;28;20036;-81
2021/11/13 14:05:37;;;;;;;9.68;4.78;;;;;;;;;;5041298;28;20029;-85
2021/11/13 14:08:13;;;;;;;5.40;4.10;;;;;;;;;;5057814;28;20036;-80
2021/11/13 14:10:52;;;;;;;7.50;4.35;;;;;;;;;;5040183;28;20050;-83
2021/11/13 14:13:22;;;;;;;9.73;5.05;;;;;;;;;;5042196;28;20063;-79
2021/11/13 14:16:09;;;;;;;8.32;4.95;;;;;;;;;;5044740;28;20051;-83
2021/11/13 14:18:46;;;;;;;8.00;4.28;;;;;;;;;;5042164;28;20025;-84
2021/11/13 14:21:12;;;;;;;9.23;4.60;;;;;;;;;;5041067;28;20083;-79
2021/11/13 14:23:41;;;;;;;7.95;4.57;;;;;;;;;;5047474;28;21832;-84
2021/11/13 14:26:19;;;;;;;6.78;4.60;;;;;;;;;;5047068;28;20470;-83
2021/11/13 14:28:48;;;;;;;12.38;4.70;;;;;;;;;;5061287;28;20415;-83
2021/11/13 14:31:25;;;;;;;5.97;4.00;;;;;;;;;;5062963;28;20029;-81